Terminal Aerodrome Forecast
Issued by NWS Cleveland, OH

Home | Current Version | Previous Version | Text Only | Print | Product List | Glossary Off
Versions: 1 2 3 4 5 6 7 8 9 10 11 12 13

310
FTUS41 KCLE 170532
TAFTOL
TAF
KTOL 170532Z 1706/1806 13004KT P6SM SCT060 OVC100
     FM171600 20008KT P6SM BKN200=

USA.gov is the U.S. government's official web portal to all federal, state and local government web resources and services.